Chemical Pioneer — KAFO — position and weather

sailwx.info

Track history (hours):
 
Tides and Currents Weather Stations Pressure Air Temp Water Temp Dewpoint Dewpoint Depression Visibility Wind Speed Wind Dir Waves Ship Positions

Chemical Pioneer

More information available from US FCC via Universal Licensing System and Coast Guard Vessel Documentation Center.

Last reported at 2014-Sep-01 07:31 UTC. Time now 2014-Sep-01 07:45 UTC.
Position N 40°39' W 074°06'.

Type: Tanker. MMSI: 366032000.

Date/timePositionNaut miles runAvg speedWind from/ knotsBaromVisibWave heightAir tempDewpointWater temp
2014-Sep-01 07:31N 40°39' W 074°06'0 0.0
2014-Sep-01 06:31N 40°39' W 074°06'0 0.0
2014-Sep-01 05:31N 40°39' W 074°06'0 0.0
2014-Sep-01 04:31N 40°39' W 074°06'0 0.0
2014-Aug-31 22:30N 40°39' W 074°06'3 2.6
2014-Aug-31 21:31N 40°37' W 074°03'7 7.5
2014-Aug-31 20:33N 40°31' W 073°59'1111.6
2014-Aug-31 19:33N 40°30' W 073°44'0 0.3
2014-Aug-31 18:31N 40°30' W 073°43'0 0.0
2014-Aug-31 17:31N 40°30' W 073°43'0 0.0
2014-Aug-31 16:28N 40°30' W 073°44'0 0.0
2014-Aug-31 15:31N 40°30' W 073°44'2 1.4
2014-Aug-31 14:26N 40°29' W 073°45'1213.7
2014-Aug-31 13:33N 40°17' W 073°46'1413.4
2014-Aug-31 12:32N 40°03' W 073°44'1515.3
2014-Aug-31 11:33N 39°49' W 073°42'1615.3
2014-Aug-31 10:31N 39°33' W 073°44'1515.2
2014-Aug-31 09:32N 39°18' W 073°47'1515.2
2014-Aug-31 08:33N 39°03' W 073°49'1615.2
2014-Aug-31 07:31N 38°48' W 073°51'1515.1
2014-Aug-31 06:33N 38°33' W 073°54'1715.3
2014-Aug-31 05:27N 38°17' W 073°59'1415.3
2014-Aug-31 04:33N 38°03' W 074°01'1615.4
2014-Aug-31 03:32N 37°48' W 074°05'  
2014-Aug-24 06:33N 26°45' W 079°43'1919.3
2014-Aug-24 05:33N 26°26' W 079°46'1818.5
2014-Aug-24 04:33N 26°08' W 079°49'1818.2
2014-Aug-24 03:33N 25°50' W 079°51'1918.1
2014-Aug-24 02:31N 25°31' W 079°54'3917.1
2014-Aug-24 00:15N 24°56' W 080°12'  
Track history (hours):
 
Tides and Currents Weather Stations Pressure Air Temp Water Temp Dewpoint Dewpoint Depression Visibility Wind Speed Wind Dir Waves Ship Positions

Chemical Pioneer

More information available from US FCC via Universal Licensing System and Coast Guard Vessel Documentation Center.

Last reported at 2014-Sep-01 07:31 UTC. Time now 2014-Sep-01 07:45 UTC.
Position N 40°39' W 074°06'.

Type: Tanker. MMSI: 366032000.

Date/timePositionNaut miles runAvg speedWind from/ knotsBaromVisibWave heightAir tempDewpointWater temp
2014-Sep-01 07:31N 40°39' W 074°06'0 0.0
2014-Sep-01 06:31N 40°39' W 074°06'0 0.0
2014-Sep-01 05:31N 40°39' W 074°06'0 0.0
2014-Sep-01 04:31N 40°39' W 074°06'0 0.0
2014-Aug-31 22:30N 40°39' W 074°06'3 2.6
2014-Aug-31 21:31N 40°37' W 074°03'7 7.5
2014-Aug-31 20:33N 40°31' W 073°59'1111.6
2014-Aug-31 19:33N 40°30' W 073°44'0 0.3
2014-Aug-31 18:31N 40°30' W 073°43'0 0.0
2014-Aug-31 17:31N 40°30' W 073°43'0 0.0
2014-Aug-31 16:28N 40°30' W 073°44'0 0.0
2014-Aug-31 15:31N 40°30' W 073°44'2 1.4
2014-Aug-31 14:26N 40°29' W 073°45'1213.7
2014-Aug-31 13:33N 40°17' W 073°46'1413.4
2014-Aug-31 12:32N 40°03' W 073°44'1515.3
2014-Aug-31 11:33N 39°49' W 073°42'1615.3
2014-Aug-31 10:31N 39°33' W 073°44'1515.2
2014-Aug-31 09:32N 39°18' W 073°47'1515.2
2014-Aug-31 08:33N 39°03' W 073°49'1615.2
2014-Aug-31 07:31N 38°48' W 073°51'1515.1
2014-Aug-31 06:33N 38°33' W 073°54'1715.3
2014-Aug-31 05:27N 38°17' W 073°59'1415.3
2014-Aug-31 04:33N 38°03' W 074°01'1615.4
2014-Aug-31 03:32N 37°48' W 074°05'  
2014-Aug-24 06:33N 26°45' W 079°43'1919.3
2014-Aug-24 05:33N 26°26' W 079°46'1818.5
2014-Aug-24 04:33N 26°08' W 079°49'1818.2
2014-Aug-24 03:33N 25°50' W 079°51'1918.1
2014-Aug-24 02:31N 25°31' W 079°54'3917.1
2014-Aug-24 00:15N 24°56' W 080°12'  

Dump ship's entire track history